Time;durP1;ratioP1;P1;durP2;ratioP2;P2;SDS_P1;SDS_P2;PMS_P1;PMS_P2;Temp;Humidity;BMP_temperature;BMP_pressure;BME280_temperature;BME280_humidity;BME280_pressure;Samples;Min_cycle;Max_cycle;Signal;HPM_P1;HPM_P2
2021/04/12 12:58:58;;;;;;;2.85;0.90;;;;;;;;;;5150639;27;20297;-77
2021/04/12 13:01:26;;;;;;;3.10;0.90;;;;;;;;;;5149882;27;20051;-78
2021/04/12 13:03:52;;;;;;;7.38;1.58;;;;;;;;;;5150275;27;20491;-77
2021/04/12 13:06:21;;;;;;;9.27;1.75;;;;;;;;;;5150398;27;20022;-77
2021/04/12 13:08:51;;;;;;;4.65;1.27;;;;;;;;;;5150747;27;20027;-77
2021/04/12 13:11:37;;;;;;;4.30;1.40;;;;;;;;;;5148634;27;20026;-77
2021/04/12 13:14:21;;;;;;;3.88;1.30;;;;;;;;;;5149989;27;20027;-76
2021/04/12 13:16:47;;;;;;;3.58;1.27;;;;;;;;;;5150719;27;20026;-79
2021/04/12 13:19:14;;;;;;;1.65;0.80;;;;;;;;;;5150195;27;20031;-77
2021/04/12 13:21:42;;;;;;;3.95;1.20;;;;;;;;;;5129187;27;20035;-77
2021/04/12 13:24:11;;;;;;;2.10;1.00;;;;;;;;;;5129490;27;20084;-77
2021/04/12 13:26:37;;;;;;;4.50;0.90;;;;;;;;;;5128118;28;20502;-76
2021/04/12 13:29:22;;;;;;;2.33;1.23;;;;;;;;;;5143341;27;20023;-77
2021/04/12 13:31:50;;;;;;;1.52;0.93;;;;;;;;;;5150070;27;20030;-77
2021/04/12 13:34:18;;;;;;;1.50;0.80;;;;;;;;;;5150065;27;20077;-78
2021/04/12 13:36:52;;;;;;;4.47;1.70;;;;;;;;;;5151858;27;20031;-78
2021/04/12 13:39:25;;;;;;;2.78;1.02;;;;;;;;;;5151890;27;20023;-78
2021/04/12 13:41:52;;;;;;;2.55;1.00;;;;;;;;;;5150151;27;20494;-78
2021/04/12 13:44:20;;;;;;;2.22;0.82;;;;;;;;;;5148195;27;20047;-79
2021/04/12 13:46:52;;;;;;;4.78;0.90;;;;;;;;;;5149692;27;20083;-78
2021/04/12 13:49:20;;;;;;;2.13;0.88;;;;;;;;;;5149411;27;20105;-77
2021/04/12 13:52:02;;;;;;;4.32;1.30;;;;;;;;;;5149183;27;20038;-78
2021/04/12 13:54:31;;;;;;;5.60;1.30;;;;;;;;;;5149364;27;20034;-78
2021/04/12 13:57:01;;;;;;;3.17;0.80;;;;;;;;;;5149358;27;20031;-78
2021/04/12 13:59:29;;;;;;;2.22;0.93;;;;;;;;;;5149397;27;20051;-78
2021/04/12 14:02:04;;;;;;;1.25;0.70;;;;;;;;;;5147972;27;20015;-78
2021/04/12 14:04:38;;;;;;;0.75;0.73;;;;;;;;;;5148053;27;20083;-78
2021/04/12 14:07:04;;;;;;;5.18;1.05;;;;;;;;;;5150177;27;20032;-77
2021/04/12 14:09:33;;;;;;;2.75;1.63;;;;;;;;;;5142223;27;20383;-77
2021/04/12 14:12:06;;;;;;;2.72;0.90;;;;;;;;;;5135088;27;20063;-79
2021/04/12 14:14:32;;;;;;;;;;;;;;;;;;5135611;27;20244;-77
2021/04/12 14:17:07;;;;;;;2.08;1.00;;;;;;;;;;5135029;27;19914;-77
2021/04/12 14:19:52;;;;;;;3.05;0.70;;;;;;;;;;5135036;27;20099;-77
2021/04/12 14:22:30;;;;;;;4.72;0.90;;;;;;;;;;5133581;27;20038;-77
2021/04/12 14:25:11;;;;;;;3.38;1.70;;;;;;;;;;5131158;27;21452;-73
2021/04/12 14:27:38;;;;;;;2.13;1.25;;;;;;;;;;5151174;27;20027;-73
2021/04/12 14:30:04;;;;;;;1.42;0.60;;;;;;;;;;5141163;27;20065;-73
2021/04/12 14:32:45;;;;;;;2.33;1.00;;;;;;;;;;5113998;28;20024;-78
2021/04/12 14:35:27;;;;;;;1.77;0.90;;;;;;;;;;5114259;28;20060;-77
2021/04/12 14:38:04;;;;;;;1.25;0.60;;;;;;;;;;5114393;28;20088;-77
2021/04/12 14:40:31;;;;;;;2.55;0.60;;;;;;;;;;5113906;28;20019;-77
2021/04/12 14:42:57;;;;;;;1.05;0.52;;;;;;;;;;5114056;28;20020;-77
2021/04/12 14:45:42;;;;;;;2.53;0.60;;;;;;;;;;5113777;28;20030;-76
2021/04/12 14:48:30;;;;;;;3.30;1.35;;;;;;;;;;5112663;28;20112;-78
2021/04/12 14:50:59;;;;;;;3.67;0.50;;;;;;;;;;5142312;27;20023;-75
2021/04/12 14:53:34;;;;;;;0.90;0.40;;;;;;;;;;5118080;27;20019;-76
2021/04/12 14:56:05;;;;;;;1.70;0.85;;;;;;;;;;5117789;27;20047;-74
2021/04/12 14:58:34;;;;;;;1.60;0.95;;;;;;;;;;5119639;27;20398;-74
2021/04/12 15:01:09;;;;;;;1.23;0.40;;;;;;;;;;5120681;27;20031;-74
2021/04/12 15:03:48;;;;;;;2.03;0.80;;;;;;;;;;5113588;28;20026;-74
2021/04/12 15:06:18;;;;;;;4.25;1.20;;;;;;;;;;5113572;28;20020;-74
2021/04/12 15:08:55;;;;;;;3.15;0.90;;;;;;;;;;5113439;28;20058;-73
2021/04/12 15:11:27;;;;;;;1.83;0.60;;;;;;;;;;5113199;28;20102;-74
2021/04/12 15:14:10;;;;;;;2.33;0.82;;;;;;;;;;5111958;28;20027;-75
2021/04/12 15:16:45;;;;;;;0.77;0.60;;;;;;;;;;5112951;28;20447;-73
2021/04/12 15:19:31;;;;;;;4.40;1.75;;;;;;;;;;5111808;28;20102;-75
2021/04/12 15:22:09;;;;;;;1.15;0.63;;;;;;;;;;5112188;28;20036;-74
2021/04/12 15:24:43;;;;;;;0.98;0.60;;;;;;;;;;5113348;28;20399;-74
2021/04/12 15:27:17;;;;;;;3.22;0.60;;;;;;;;;;5113361;28;20098;-75
2021/04/12 15:29:46;;;;;;;1.65;0.70;;;;;;;;;;5114391;27;20035;-75
2021/04/12 15:32:12;;;;;;;2.78;0.93;;;;;;;;;;5114840;28;20028;-74
2021/04/12 15:34:43;;;;;;;2.70;0.60;;;;;;;;;;5113224;28;20035;-75
2021/04/12 15:37:30;;;;;;;4.35;0.80;;;;;;;;;;5128170;27;20031;-75
2021/04/12 15:40:06;;;;;;;2.15;0.75;;;;;;;;;;5128639;27;20022;-75
2021/04/12 15:42:35;;;;;;;2.33;0.90;;;;;;;;;;5135107;27;20122;-74
2021/04/12 15:45:04;;;;;;;6.07;0.93;;;;;;;;;;5133821;27;20027;-74
2021/04/12 15:47:31;;;;;;;0.93;0.82;;;;;;;;;;5132444;27;20035;-75
2021/04/12 15:50:07;;;;;;;3.42;1.15;;;;;;;;;;5130801;27;20026;-75
2021/04/12 15:52:39;;;;;;;2.40;0.80;;;;;;;;;;5138975;27;20027;-72
2021/04/12 15:55:14;;;;;;;1.50;0.85;;;;;;;;;;5151898;27;20030;-72
2021/04/12 15:57:40;;;;;;;2.75;1.08;;;;;;;;;;5152772;27;20095;-72
2021/04/12 16:00:10;;;;;;;4.30;0.90;;;;;;;;;;5151374;27;20068;-73
2021/04/12 16:02:38;;;;;;;1.80;0.80;;;;;;;;;;5153296;27;20015;-72
2021/04/12 16:05:23;;;;;;;2.45;0.80;;;;;;;;;;5134190;27;20098;-75
2021/04/12 16:07:54;;;;;;;4.28;0.90;;;;;;;;;;5126534;27;20392;-76
2021/04/12 16:10:25;;;;;;;1.92;0.82;;;;;;;;;;5134867;27;20038;-76
2021/04/12 16:13:15;;;;;;;1.70;0.68;;;;;;;;;;5151839;27;20106;-74
2021/04/12 16:15:50;;;;;;;2.35;1.10;;;;;;;;;;5151377;27;20023;-73
2021/04/12 16:18:28;;;;;;;2.00;0.77;;;;;;;;;;5152832;27;20033;-74
2021/04/12 16:20:57;;;;;;;1.55;0.95;;;;;;;;;;5126520;27;20042;-75
2021/04/12 16:23:39;;;;;;;1.08;0.55;;;;;;;;;;5131100;27;20080;-75
2021/04/12 16:26:26;;;;;;;2.25;0.70;;;;;;;;;;5132192;27;20499;-75
2021/04/12 16:28:56;;;;;;;0.60;0.43;;;;;;;;;;5130215;27;20051;-75
2021/04/12 16:31:28;;;;;;;1.52;0.47;;;;;;;;;;5110672;28;20024;-75
2021/04/12 16:33:55;;;;;;;0.60;0.40;;;;;;;;;;5111943;28;20028;-76
2021/04/12 16:36:24;;;;;;;3.13;0.40;;;;;;;;;;5111904;28;20061;-75
2021/04/12 16:39:04;;;;;;;2.03;0.50;;;;;;;;;;5111415;28;20027;-75
2021/04/12 16:41:31;;;;;;;0.40;0.40;;;;;;;;;;5111035;28;20020;-77
2021/04/12 16:44:09;;;;;;;3.10;0.60;;;;;;;;;;5106585;27;20027;-78
2021/04/12 16:46:58;;;;;;;2.55;0.80;;;;;;;;;;5116192;27;20023;-77
2021/04/12 16:49:36;;;;;;;2.55;0.90;;;;;;;;;;5127107;27;20051;-77
2021/04/12 16:52:02;;;;;;;1.60;0.88;;;;;;;;;;5127986;27;20086;-74
2021/04/12 16:54:32;;;;;;;1.98;0.90;;;;;;;;;;5129135;27;20114;-74
2021/04/12 16:57:22;;;;;;;1.00;0.70;;;;;;;;;;5129202;27;20033;-74
2021/04/12 17:00:13;;;;;;;5.68;2.08;;;;;;;;;;5101663;28;20054;-74
2021/04/12 17:02:45;;;;;;;4.88;0.93;;;;;;;;;;5114422;28;20033;-74
2021/04/12 17:05:24;;;;;;;2.50;1.25;;;;;;;;;;5117523;28;20087;-73
2021/04/12 17:08:02;;;;;;;3.38;1.30;;;;;;;;;;5114012;28;20030;-74
2021/04/12 17:10:49;;;;;;;1.00;0.55;;;;;;;;;;5120508;27;20111;-76
2021/04/12 17:13:55;;;;;;;2.22;1.00;;;;;;;;;;5139077;27;20019;-74
2021/04/12 17:16:21;;;;;;;2.75;1.00;;;;;;;;;;5084893;28;20175;-73
2021/04/12 17:18:50;;;;;;;2.35;0.90;;;;;;;;;;5085075;28;20032;-78
2021/04/12 17:21:22;;;;;;;3.03;0.80;;;;;;;;;;5087806;28;20288;-72
2021/04/12 17:23:56;;;;;;;4.40;1.23;;;;;;;;;;5127674;27;20015;-73
2021/04/12 17:26:45;;;;;;;3.10;1.10;;;;;;;;;;5119623;27;20045;-73
2021/04/12 17:29:27;;;;;;;2.20;1.30;;;;;;;;;;5114880;27;20038;-71
2021/04/12 17:32:02;;;;;;;1.83;0.90;;;;;;;;;;5125697;27;20027;-74
2021/04/12 17:34:35;;;;;;;2.03;0.85;;;;;;;;;;5143968;27;20542;-76
2021/04/12 17:37:01;;;;;;;;;;;;;;;;;;5149129;27;20390;-76
2021/04/12 17:39:32;;;;;;;3.35;1.35;;;;;;;;;;5151179;27;19906;-74
2021/04/12 17:42:10;;;;;;;3.03;1.40;;;;;;;;;;5150597;27;20023;-76
2021/04/12 17:44:39;;;;;;;3.10;1.40;;;;;;;;;;5147213;27;20031;-75
2021/04/12 17:47:07;;;;;;;2.85;1.70;;;;;;;;;;5124575;27;20030;-76
2021/04/12 17:49:54;;;;;;;2.75;1.85;;;;;;;;;;5123680;27;20076;-76
2021/04/12 17:52:23;;;;;;;3.08;1.80;;;;;;;;;;5123895;27;20019;-76
2021/04/12 17:55:01;;;;;;;5.43;1.60;;;;;;;;;;5121664;27;20123;-75
2021/04/12 17:57:33;;;;;;;4.25;1.23;;;;;;;;;;5122666;27;20028;-74
2021/04/12 18:00:00;;;;;;;3.97;1.58;;;;;;;;;;5123489;27;20443;-76
2021/04/12 18:02:32;;;;;;;4.18;1.35;;;;;;;;;;5124343;27;20027;-75
2021/04/12 18:05:02;;;;;;;5.20;1.50;;;;;;;;;;5123809;27;20020;-75
2021/04/12 18:07:31;;;;;;;4.78;1.90;;;;;;;;;;5121417;27;20028;-75
2021/04/12 18:10:08;;;;;;;2.40;1.55;;;;;;;;;;5124062;27;20098;-74
2021/04/12 18:12:41;;;;;;;3.65;2.45;;;;;;;;;;5123367;27;20063;-75
2021/04/12 18:15:27;;;;;;;4.68;1.85;;;;;;;;;;5122526;27;20493;-74
2021/04/12 18:17:59;;;;;;;3.95;1.50;;;;;;;;;;5122333;27;20103;-75
2021/04/12 18:20:32;;;;;;;3.33;2.03;;;;;;;;;;5120485;27;20025;-75
2021/04/12 18:23:04;;;;;;;4.03;1.88;;;;;;;;;;5123719;27;20027;-75
2021/04/12 18:25:34;;;;;;;4.25;2.38;;;;;;;;;;5124855;27;20106;-74
2021/04/12 18:28:13;;;;;;;5.47;2.70;;;;;;;;;;5123911;27;20050;-74
2021/04/12 18:30:58;;;;;;;5.25;2.38;;;;;;;;;;5123246;27;20452;-74
2021/04/12 18:33:26;;;;;;;6.57;3.10;;;;;;;;;;5123819;27;20084;-73
2021/04/12 18:36:18;;;;;;;6.03;2.88;;;;;;;;;;5122106;27;20019;-75
2021/04/12 18:38:47;;;;;;;5.97;3.08;;;;;;;;;;5121838;27;20043;-75
2021/04/12 18:41:21;;;;;;;4.95;2.97;;;;;;;;;;5125035;27;20095;-75
2021/04/12 18:43:53;;;;;;;5.57;2.45;;;;;;;;;;5123935;27;20019;-74
2021/04/12 18:46:28;;;;;;;4.68;2.58;;;;;;;;;;5122634;27;20038;-74
2021/04/12 18:49:08;;;;;;;3.30;1.88;;;;;;;;;;5122528;27;20035;-75
2021/04/12 18:51:45;;;;;;;5.55;2.10;;;;;;;;;;5122720;27;20030;-75
2021/04/12 18:54:16;;;;;;;4.05;1.92;;;;;;;;;;5123846;27;20094;-75
